createdAt,value
2017-05-09T00:00:23.524Z,0
2017-05-09T00:01:32.352Z,0
2017-05-09T00:02:41.186Z,0
2017-05-09T00:03:50.035Z,0
2017-05-09T00:04:58.867Z,0
2017-05-09T00:06:07.699Z,0
2017-05-09T00:07:16.531Z,0
2017-05-09T00:08:25.407Z,0
2017-05-09T00:09:34.238Z,0
2017-05-09T00:10:43.076Z,0
2017-05-09T00:11:51.907Z,0
2017-05-09T00:13:00.754Z,0
2017-05-09T00:14:09.588Z,0
2017-05-09T00:15:18.424Z,0
2017-05-09T00:16:27.259Z,0
2017-05-09T00:17:36.405Z,0
2017-05-09T00:18:45.240Z,0
2017-05-09T00:19:54.073Z,0
2017-05-09T00:21:02.913Z,0
2017-05-09T00:22:12.061Z,0
2017-05-09T00:23:20.905Z,0
2017-05-09T00:24:29.903Z,0
2017-05-09T00:25:38.734Z,0
2017-05-09T00:26:47.577Z,0
2017-05-09T00:27:56.713Z,0
2017-05-09T00:29:05.554Z,0
2017-05-09T00:30:14.383Z,0
2017-05-09T00:31:23.214Z,0
2017-05-09T00:32:32.051Z,0
2017-05-09T00:33:40.882Z,0
2017-05-09T00:34:49.722Z,0
2017-05-09T00:35:58.556Z,0
2017-05-09T00:37:07.390Z,0
2017-05-09T00:38:16.234Z,0
2017-05-09T00:39:25.069Z,0
2017-05-09T00:40:33.909Z,0
2017-05-09T00:41:42.745Z,0
2017-05-09T00:42:51.581Z,0
2017-05-09T00:44:00.417Z,0
2017-05-09T00:45:09.249Z,0
2017-05-09T00:46:18.111Z,0
2017-05-09T00:47:26.940Z,0
2017-05-09T00:48:35.767Z,0
2017-05-09T00:49:44.611Z,0
2017-05-09T00:50:53.453Z,0
2017-05-09T00:52:02.284Z,0
2017-05-09T00:53:11.127Z,0
2017-05-09T00:54:19.952Z,0
2017-05-09T00:55:28.784Z,0
2017-05-09T00:56:37.612Z,0
2017-05-09T00:57:46.453Z,0
2017-05-09T00:58:55.287Z,0
2017-05-09T01:00:04.442Z,0
2017-05-09T01:01:13.271Z,0
2017-05-09T01:02:22.098Z,0
2017-05-09T01:03:30.938Z,0
2017-05-09T01:04:39.768Z,0
2017-05-09T01:05:48.591Z,0
2017-05-09T01:06:57.425Z,0
2017-05-09T01:08:06.259Z,0
2017-05-09T01:09:15.091Z,0
2017-05-09T01:10:23.922Z,0
2017-05-09T01:11:32.759Z,0
2017-05-09T01:12:41.584Z,0
2017-05-09T01:13:50.421Z,0
2017-05-09T01:14:59.257Z,0
2017-05-09T01:16:08.087Z,0
2017-05-09T01:17:16.919Z,0
2017-05-09T01:18:25.759Z,0
2017-05-09T01:19:34.592Z,0
2017-05-09T01:20:43.743Z,0
2017-05-09T01:21:52.578Z,0
2017-05-09T01:23:01.411Z,0
2017-05-09T01:24:10.570Z,0
2017-05-09T01:25:19.396Z,0
2017-05-09T01:26:28.232Z,0
2017-05-09T01:27:37.066Z,0
2017-05-09T01:28:46.228Z,0
2017-05-09T01:29:55.066Z,0
2017-05-09T01:31:03.946Z,0
2017-05-09T01:32:12.788Z,0
2017-05-09T01:33:21.930Z,0
2017-05-09T01:34:31.080Z,0
2017-05-09T01:35:39.920Z,0
2017-05-09T01:36:48.775Z,0
2017-05-09T01:37:57.610Z,0
2017-05-09T01:39:06.440Z,0
2017-05-09T01:40:15.594Z,0
2017-05-09T01:41:24.422Z,0
2017-05-09T01:42:33.256Z,0
2017-05-09T01:43:42.084Z,0
2017-05-09T01:44:51.242Z,0
2017-05-09T01:46:00.109Z,0
2017-05-09T01:47:08.935Z,0
2017-05-09T01:48:17.767Z,0
2017-05-09T01:49:26.594Z,0
2017-05-09T01:50:35.437Z,0
2017-05-09T01:51:44.266Z,0
2017-05-09T01:52:53.106Z,0
2017-05-09T01:54:01.953Z,0
2017-05-09T01:55:10.791Z,0
2017-05-09T01:56:19.624Z,0
2017-05-09T01:57:28.454Z,0
2017-05-09T01:58:37.283Z,0
2017-05-09T01:59:46.460Z,0
2017-05-09T02:00:55.295Z,0
2017-05-09T02:02:04.120Z,0
2017-05-09T02:03:12.957Z,0
2017-05-09T02:04:21.795Z,0
2017-05-09T02:05:30.626Z,0
2017-05-09T02:06:39.467Z,0
2017-05-09T02:07:51.010Z,0
2017-05-09T02:08:59.841Z,0
2017-05-09T02:10:09.095Z,0
2017-05-09T02:11:17.946Z,0
2017-05-09T02:12:26.773Z,0
2017-05-09T02:13:35.609Z,0
2017-05-09T02:14:44.436Z,0
2017-05-09T02:15:53.266Z,0
2017-05-09T02:17:02.105Z,0
2017-05-09T02:18:10.939Z,0
2017-05-09T02:19:20.088Z,0
2017-05-09T02:20:28.917Z,0
2017-05-09T02:21:37.747Z,0
2017-05-09T02:22:46.586Z,0
2017-05-09T02:23:55.420Z,0
2017-05-09T02:25:04.260Z,0
2017-05-09T02:26:13.092Z,0
2017-05-09T02:27:21.923Z,0
2017-05-09T02:28:30.750Z,0
2017-05-09T02:29:39.583Z,0
2017-05-09T02:30:48.415Z,0
2017-05-09T02:31:57.244Z,0
2017-05-09T02:33:06.082Z,0
2017-05-09T02:34:14.915Z,0
2017-05-09T02:35:23.746Z,0
2017-05-09T02:36:32.579Z,0
2017-05-09T02:37:41.732Z,0
2017-05-09T02:38:50.566Z,0
2017-05-09T02:39:59.398Z,0
2017-05-09T02:41:08.244Z,0
2017-05-09T02:42:17.074Z,0
2017-05-09T02:43:25.922Z,0
2017-05-09T02:44:34.751Z,0
2017-05-09T02:45:43.583Z,0
2017-05-09T02:46:52.417Z,0
2017-05-09T02:48:01.263Z,0
2017-05-09T02:49:10.106Z,0
2017-05-09T02:50:18.934Z,0
2017-05-09T02:51:27.761Z,0
2017-05-09T02:52:36.595Z,0
2017-05-09T02:53:45.461Z,0
2017-05-09T02:54:54.298Z,0
2017-05-09T02:56:03.131Z,0
2017-05-09T02:57:11.967Z,0
2017-05-09T02:58:20.803Z,0
2017-05-09T02:59:29.641Z,0
2017-05-09T03:00:38.478Z,0
2017-05-09T03:01:47.314Z,0
2017-05-09T03:02:56.148Z,0
2017-05-09T03:04:04.982Z,0
2017-05-09T03:05:13.828Z,0
2017-05-09T03:06:22.650Z,4
2017-05-09T03:07:31.487Z,4
2017-05-09T03:08:40.315Z,0
2017-05-09T03:09:49.152Z,0
2017-05-09T03:10:57.982Z,4
2017-05-09T03:12:06.814Z,4
2017-05-09T03:13:15.647Z,4
2017-05-09T03:14:24.480Z,4
2017-05-09T03:15:33.316Z,4
2017-05-09T03:16:42.139Z,4
2017-05-09T03:17:50.971Z,4
2017-05-09T03:18:59.810Z,4
2017-05-09T03:20:08.637Z,8
2017-05-09T03:21:17.501Z,8
2017-05-09T03:22:26.650Z,8
2017-05-09T03:23:35.487Z,8
2017-05-09T03:24:44.315Z,8
2017-05-09T03:25:53.157Z,12
2017-05-09T03:27:01.987Z,12
2017-05-09T03:28:11.136Z,12
2017-05-09T03:29:19.963Z,16
2017-05-09T03:30:28.802Z,12
2017-05-09T03:31:37.638Z,16
2017-05-09T03:32:46.467Z,16
2017-05-09T03:33:55.621Z,20
2017-05-09T03:35:04.463Z,24
2017-05-09T03:36:13.295Z,24
2017-05-09T03:37:22.125Z,24
2017-05-09T03:38:30.966Z,28
2017-05-09T03:39:39.795Z,28
2017-05-09T03:40:48.626Z,36
2017-05-09T03:41:57.462Z,36
2017-05-09T03:43:06.310Z,40
2017-05-09T03:44:15.143Z,36
2017-05-09T03:45:23.965Z,40
2017-05-09T03:46:32.795Z,40
2017-05-09T03:47:41.634Z,40
2017-05-09T03:48:50.469Z,44
2017-05-09T03:49:59.304Z,44
2017-05-09T03:51:08.159Z,44
2017-05-09T03:52:16.985Z,44
2017-05-09T03:53:25.818Z,48
2017-05-09T03:54:34.652Z,48
2017-05-09T03:55:43.799Z,52
2017-05-09T03:56:52.636Z,56
2017-05-09T03:58:01.465Z,56
2017-05-09T03:59:10.292Z,64
2017-05-09T04:00:19.130Z,64
2017-05-09T04:01:27.959Z,68
2017-05-09T04:02:36.790Z,68
2017-05-09T04:03:45.958Z,72
2017-05-09T04:04:54.792Z,72
2017-05-09T04:06:03.624Z,72
2017-05-09T04:07:12.474Z,72
2017-05-09T04:08:21.305Z,76
2017-05-09T04:09:30.134Z,76
2017-05-09T04:10:39.300Z,76
2017-05-09T04:11:48.761Z,80
2017-05-09T04:12:57.594Z,84
2017-05-09T04:14:06.426Z,84
2017-05-09T04:15:15.260Z,92
2017-05-09T04:16:24.094Z,96
2017-05-09T04:17:32.929Z,96
2017-05-09T04:18:41.762Z,104
2017-05-09T04:19:50.595Z,108
2017-05-09T04:20:59.426Z,112
2017-05-09T04:22:08.256Z,120
2017-05-09T04:23:17.094Z,124
2017-05-09T04:24:25.926Z,128
2017-05-09T04:25:34.766Z,128
2017-05-09T04:26:43.599Z,132
2017-05-09T04:27:52.438Z,140
2017-05-09T04:29:01.273Z,148
2017-05-09T04:30:10.107Z,156
2017-05-09T04:31:18.941Z,156
2017-05-09T04:32:28.083Z,164
2017-05-09T04:33:36.920Z,164
2017-05-09T04:34:45.765Z,164
2017-05-09T04:35:54.589Z,172
2017-05-09T04:37:03.739Z,172
2017-05-09T04:38:12.570Z,180
2017-05-09T04:39:21.403Z,184
2017-05-09T04:40:30.264Z,192
2017-05-09T04:41:39.112Z,192
2017-05-09T04:42:48.257Z,200
2017-05-09T04:43:57.094Z,208
2017-05-09T04:45:05.930Z,224
2017-05-09T04:46:14.757Z,252
2017-05-09T04:47:23.627Z,264
2017-05-09T04:48:32.455Z,264
2017-05-09T04:49:41.284Z,260
2017-05-09T04:50:50.115Z,268
2017-05-09T04:51:58.944Z,268
2017-05-09T04:53:07.774Z,272
2017-05-09T04:54:16.604Z,268
2017-05-09T04:55:25.430Z,268
2017-05-09T04:56:34.260Z,276
2017-05-09T04:57:43.098Z,288
2017-05-09T04:58:51.931Z,316
2017-05-09T05:00:00.766Z,348
2017-05-09T05:01:09.912Z,368
2017-05-09T05:02:18.745Z,380
2017-05-09T05:03:27.575Z,376
2017-05-09T05:04:36.402Z,372
2017-05-09T05:05:45.235Z,384
2017-05-09T05:06:54.389Z,408
2017-05-09T05:08:03.230Z,416
2017-05-09T05:09:12.072Z,408
2017-05-09T05:10:20.908Z,408
2017-05-09T05:11:29.730Z,412
2017-05-09T05:12:38.562Z,408
2017-05-09T05:13:47.710Z,416
2017-05-09T05:14:56.552Z,416
2017-05-09T05:16:05.389Z,392
2017-05-09T05:17:14.214Z,428
2017-05-09T05:18:23.046Z,432
2017-05-09T05:19:31.880Z,440
2017-05-09T05:20:40.721Z,456
2017-05-09T05:21:49.550Z,464
2017-05-09T05:22:58.392Z,472
2017-05-09T05:24:07.220Z,492
2017-05-09T05:25:16.052Z,504
2017-05-09T05:26:24.911Z,508
2017-05-09T05:27:33.744Z,504
2017-05-09T05:28:42.580Z,500
2017-05-09T05:29:51.408Z,496
2017-05-09T05:31:00.236Z,488
2017-05-09T05:32:09.068Z,488
2017-05-09T05:33:17.901Z,488
2017-05-09T05:34:26.727Z,496
2017-05-09T05:35:35.558Z,500
2017-05-09T05:36:44.394Z,512
2017-05-09T05:37:53.226Z,520
2017-05-09T05:39:02.375Z,524
2017-05-09T05:40:11.211Z,536
2017-05-09T05:41:20.039Z,544
2017-05-09T05:42:28.873Z,556
2017-05-09T05:43:37.706Z,548
2017-05-09T05:44:46.545Z,524
2017-05-09T05:45:55.373Z,532
2017-05-09T05:47:04.206Z,556
2017-05-09T05:48:13.032Z,576
2017-05-09T05:49:21.868Z,588
2017-05-09T05:50:30.700Z,600
2017-05-09T05:51:39.832Z,608
2017-05-09T05:52:49.090Z,620
2017-05-09T05:53:57.928Z,636
2017-05-09T05:55:06.767Z,648
2017-05-09T05:56:15.598Z,660
2017-05-09T05:57:24.435Z,672
2017-05-09T05:58:33.266Z,688
2017-05-09T05:59:42.092Z,704
2017-05-09T06:00:50.956Z,708
2017-05-09T06:02:02.550Z,712
2017-05-09T06:03:12.386Z,716
2017-05-09T06:04:21.224Z,724
2017-05-09T06:05:30.068Z,728
2017-05-09T06:06:38.900Z,736
2017-05-09T06:07:47.738Z,740
2017-05-09T06:08:56.880Z,744
2017-05-09T06:10:05.714Z,744
2017-05-09T06:11:14.584Z,752
2017-05-09T06:12:23.412Z,764
2017-05-09T06:13:32.569Z,776
2017-05-09T06:14:41.771Z,784
2017-05-09T06:15:51.644Z,788
2017-05-09T06:17:00.876Z,792
2017-05-09T06:18:09.961Z,772
2017-05-09T06:19:19.022Z,772
2017-05-09T06:20:27.869Z,768
2017-05-09T06:21:37.396Z,756
2017-05-09T06:22:46.311Z,744
2017-05-09T06:23:55.489Z,736
2017-05-09T06:25:04.566Z,736
2017-05-09T06:26:13.469Z,704
2017-05-09T06:27:22.383Z,700
2017-05-09T06:28:31.221Z,708
2017-05-09T06:29:40.049Z,724
2017-05-09T06:30:48.879Z,756
2017-05-09T06:31:57.803Z,788
2017-05-09T06:33:06.711Z,808
2017-05-09T06:34:15.567Z,828
2017-05-09T06:35:24.399Z,832
2017-05-09T06:36:33.224Z,836
2017-05-09T06:37:42.064Z,844
2017-05-09T06:38:50.904Z,856
2017-05-09T06:40:01.307Z,864
2017-05-09T06:41:10.136Z,868
2017-05-09T06:42:18.971Z,880
2017-05-09T06:43:27.805Z,900
2017-05-09T06:44:36.689Z,896
2017-05-09T06:45:45.523Z,896
2017-05-09T06:46:54.672Z,892
2017-05-09T06:48:03.516Z,856
2017-05-09T06:49:12.355Z,820
2017-05-09T06:50:21.189Z,792
2017-05-09T06:51:30.023Z,788
2017-05-09T06:52:38.855Z,792
2017-05-09T06:53:47.687Z,800
2017-05-09T06:54:56.523Z,788
2017-05-09T06:56:05.359Z,800
2017-05-09T06:57:14.190Z,824
2017-05-09T06:58:23.023Z,840
2017-05-09T06:59:31.858Z,844
2017-05-09T07:00:40.696Z,860
2017-05-09T07:01:49.595Z,868
2017-05-09T07:02:58.434Z,860
2017-05-09T07:04:07.265Z,852
2017-05-09T07:05:16.097Z,840
2017-05-09T07:06:24.927Z,808
2017-05-09T07:07:33.764Z,808
2017-05-09T07:08:42.599Z,784
2017-05-09T07:09:52.073Z,788
2017-05-09T07:11:01.545Z,804
2017-05-09T07:12:10.703Z,820
2017-05-09T07:13:19.544Z,860
2017-05-09T07:14:28.380Z,900
2017-05-09T07:15:37.221Z,908
2017-05-09T07:16:46.056Z,912
2017-05-09T07:17:54.897Z,912
2017-05-09T07:19:03.735Z,932
2017-05-09T07:20:12.900Z,940
2017-05-09T07:21:21.741Z,932
2017-05-09T07:22:30.577Z,948
2017-05-09T07:23:39.423Z,964
2017-05-09T07:24:48.398Z,984
2017-05-09T07:25:57.325Z,988
2017-05-09T07:27:06.182Z,944
2017-05-09T07:28:15.819Z,904
2017-05-09T07:29:25.321Z,912
2017-05-09T07:30:34.906Z,860
2017-05-09T19:54:36.270Z,8
2017-05-09T19:55:45.119Z,8
2017-05-09T19:56:53.967Z,8
2017-05-09T19:58:03.527Z,8
2017-05-09T19:59:12.703Z,12
2017-05-09T20:00:21.544Z,12
2017-05-09T20:01:30.384Z,12
2017-05-09T20:02:39.286Z,12
2017-05-09T20:03:48.189Z,12
2017-05-09T20:04:58.443Z,12
2017-05-09T20:06:07.385Z,12
2017-05-09T20:07:16.586Z,8
2017-05-09T20:08:25.425Z,12
2017-05-09T20:09:34.334Z,12
2017-05-09T20:10:43.172Z,8
2017-05-09T20:11:54.677Z,8
2017-05-09T20:13:03.568Z,12
2017-05-09T20:14:12.659Z,8
2017-05-09T20:15:22.474Z,8
2017-05-09T20:16:31.360Z,8
2017-05-09T20:17:40.650Z,8
2017-05-09T20:18:49.772Z,8
2017-05-09T20:19:59.220Z,8
2017-05-09T20:21:08.091Z,8
2017-05-09T20:22:17.514Z,8
2017-05-09T20:23:26.416Z,8
2017-05-09T20:24:35.278Z,8
2017-05-09T20:25:44.255Z,8
2017-05-09T20:26:53.096Z,8
2017-05-09T20:28:01.959Z,8
2017-05-09T20:29:10.921Z,8
2017-05-09T20:30:20.135Z,8
2017-05-09T20:31:29.152Z,8
2017-05-09T20:32:38.787Z,8
2017-05-09T20:33:49.017Z,8
2017-05-09T20:34:57.883Z,8
2017-05-09T20:36:06.774Z,12
2017-05-09T20:37:15.621Z,8
2017-05-09T20:38:24.466Z,8
2017-05-09T20:39:35.689Z,8
2017-05-09T20:40:44.882Z,8
2017-05-09T20:41:53.947Z,12
2017-05-09T20:43:03.333Z,8
2017-05-09T20:44:13.109Z,12
2017-05-09T20:45:22.174Z,12
2017-05-09T20:46:31.957Z,8
2017-05-09T20:47:41.408Z,12
2017-05-09T20:48:50.626Z,12
2017-05-09T20:49:59.889Z,12
2017-05-09T20:51:09.108Z,12
2017-05-09T20:52:17.997Z,12
2017-05-09T20:53:27.549Z,8
2017-05-09T20:54:36.596Z,8
2017-05-09T20:55:45.458Z,8
2017-05-09T20:56:54.348Z,8
2017-05-09T20:58:03.259Z,8
2017-05-09T20:59:12.157Z,0
2017-05-09T21:00:21.454Z,0
2017-05-09T21:01:30.678Z,0
2017-05-09T21:02:39.896Z,0
2017-05-09T21:03:49.294Z,0
2017-05-09T21:04:58.657Z,0
2017-05-09T21:06:07.690Z,0
2017-05-09T21:07:16.902Z,0
2017-05-09T21:08:26.086Z,0
2017-05-09T21:09:34.990Z,0
2017-05-09T21:10:43.860Z,0
2017-05-09T21:11:53.182Z,0
2017-05-09T21:13:02.116Z,0
2017-05-09T21:14:11.104Z,0
2017-05-09T21:15:19.980Z,0
2017-05-09T21:16:28.839Z,0
2017-05-09T21:17:37.707Z,0
2017-05-09T21:18:46.570Z,0
2017-05-09T21:19:55.423Z,0
2017-05-09T21:21:04.270Z,0
2017-05-09T21:22:13.166Z,0
2017-05-09T21:23:22.009Z,0
2017-05-09T21:24:30.879Z,0
2017-05-09T21:25:39.738Z,0
2017-05-09T21:26:48.605Z,0
2017-05-09T21:27:57.466Z,0
2017-05-09T21:29:06.324Z,0
2017-05-09T21:30:15.216Z,0
2017-05-09T21:31:24.053Z,0
2017-05-09T21:32:33.038Z,0
2017-05-09T21:33:41.882Z,0
2017-05-09T21:34:50.719Z,0
2017-05-09T21:35:59.560Z,0
2017-05-09T21:37:08.401Z,0
2017-05-09T21:38:17.235Z,0
2017-05-09T21:39:26.078Z,0
2017-05-09T21:40:34.921Z,0
2017-05-09T21:41:43.752Z,0
2017-05-09T21:42:52.995Z,0
2017-05-09T21:44:01.832Z,0
2017-05-09T21:45:10.733Z,0
2017-05-09T21:46:19.572Z,0
2017-05-09T21:47:28.574Z,0
2017-05-09T21:48:37.493Z,0
2017-05-09T21:49:46.334Z,0
2017-05-09T21:50:55.328Z,0
2017-05-09T21:52:04.160Z,0
2017-05-09T21:53:13.311Z,0
2017-05-09T21:54:22.160Z,0
2017-05-09T21:55:30.996Z,0
2017-05-09T21:56:39.833Z,0
2017-05-09T21:57:48.669Z,0
2017-05-09T21:58:57.550Z,0
2017-05-09T22:00:06.703Z,0
2017-05-09T22:01:15.571Z,0
2017-05-09T22:02:24.428Z,0
2017-05-09T22:03:33.270Z,0
2017-05-09T22:04:42.132Z,0
2017-05-09T22:05:50.970Z,0
2017-05-09T22:06:59.860Z,0
2017-05-09T22:08:08.729Z,0
2017-05-09T22:09:17.604Z,0
2017-05-09T22:10:26.453Z,0
2017-05-09T22:11:35.568Z,0
2017-05-09T22:12:44.477Z,0
2017-05-09T22:13:53.701Z,0
2017-05-09T22:15:03.204Z,0
2017-05-09T22:16:12.696Z,0
2017-05-09T22:17:22.461Z,0
2017-05-09T22:18:31.450Z,0
2017-05-09T22:19:40.439Z,0
2017-05-09T22:20:49.430Z,0
2017-05-09T22:21:58.271Z,0
2017-05-09T22:23:07.263Z,0
2017-05-09T22:24:16.466Z,0
2017-05-09T22:25:25.303Z,0
2017-05-09T22:26:34.136Z,0
2017-05-09T22:27:43.019Z,0
2017-05-09T22:28:51.855Z,0
2017-05-09T22:30:00.760Z,0
2017-05-09T22:31:09.595Z,0
2017-05-09T22:32:18.429Z,0
2017-05-09T22:33:27.322Z,0
2017-05-09T22:34:36.240Z,0
2017-05-09T22:35:45.280Z,0
2017-05-09T22:36:54.510Z,0
2017-05-09T22:38:03.576Z,0
2017-05-09T22:39:13.072Z,0
2017-05-09T22:40:22.178Z,0
2017-05-09T22:41:31.305Z,0
2017-05-09T22:42:40.301Z,0
2017-05-09T22:43:49.609Z,0
2017-05-09T22:44:58.601Z,0
2017-05-09T22:46:07.748Z,0
2017-05-09T22:47:16.583Z,0
2017-05-09T22:48:25.420Z,0
2017-05-09T22:49:34.264Z,0
2017-05-09T22:50:43.092Z,0
2017-05-09T22:51:51.921Z,0
2017-05-09T22:53:00.770Z,0
2017-05-09T22:54:09.601Z,0
2017-05-09T22:55:18.452Z,0
2017-05-09T22:56:27.554Z,0
2017-05-09T22:57:36.531Z,0
2017-05-09T22:58:45.382Z,0
2017-05-09T22:59:54.699Z,0
2017-05-09T23:01:03.542Z,0
2017-05-09T23:02:12.386Z,0
2017-05-09T23:03:21.259Z,0
2017-05-09T23:04:30.098Z,0
2017-05-09T23:05:38.947Z,0
2017-05-09T23:06:47.841Z,0
2017-05-09T23:07:56.857Z,0
2017-05-09T23:09:05.798Z,0
2017-05-09T23:10:14.667Z,0
2017-05-09T23:11:23.663Z,0
2017-05-09T23:12:32.504Z,0
2017-05-09T23:13:41.340Z,0
2017-05-09T23:14:50.286Z,0
2017-05-09T23:15:59.157Z,0
2017-05-09T23:17:07.996Z,0
2017-05-09T23:18:16.892Z,0
2017-05-09T23:19:25.722Z,0
2017-05-09T23:20:34.573Z,0
2017-05-09T23:21:43.511Z,0
2017-05-09T23:22:52.341Z,0
2017-05-09T23:24:01.210Z,0
2017-05-09T23:25:10.046Z,0
2017-05-09T23:26:18.892Z,0
2017-05-09T23:27:27.916Z,0
